createdAt,value
2018-12-31T00:00:36.463Z,102023.98
2018-12-31T00:03:06.645Z,102022.63
2018-12-31T00:05:36.644Z,102019.47
2018-12-31T00:08:06.264Z,102028.20
2018-12-31T00:10:35.752Z,102026.44
2018-12-31T00:13:05.503Z,102025.17
2018-12-31T00:15:35.449Z,102027.73
2018-12-31T00:18:05.269Z,102031.69
2018-12-31T00:20:35.218Z,102024.72
2018-12-31T00:23:04.733Z,102017.81
2018-12-31T00:25:34.501Z,102019.08
2018-12-31T00:28:04.336Z,102024.31
2018-12-31T00:30:34.102Z,102023.08
2018-12-31T00:33:03.925Z,102004.81
2018-12-31T00:35:33.814Z,102019.48
2018-12-31T00:38:03.311Z,102016.91
2018-12-31T00:40:32.820Z,102022.61
2018-12-31T00:43:02.560Z,102020.67
2018-12-31T00:45:32.087Z,102017.63
2018-12-31T00:48:01.875Z,102015.87
2018-12-31T00:50:31.704Z,102015.87
2018-12-31T00:53:01.229Z,102019.41
2018-12-31T00:55:31.039Z,102026.27
2018-12-31T00:58:01.193Z,102030.19
2018-12-31T01:00:30.705Z,102035.84
2018-12-31T01:03:00.868Z,102035.39
2018-12-31T01:05:30.649Z,102034.94
2018-12-31T01:08:00.531Z,102030.14
2018-12-31T01:10:30.140Z,102023.11
2018-12-31T01:13:00.178Z,102029.11
2018-12-31T01:15:29.977Z,102036.97
2018-12-31T01:17:59.762Z,102033.55
2018-12-31T01:20:29.588Z,102027.95
2018-12-31T01:22:59.403Z,102019.68
2018-12-31T01:25:29.167Z,102014.37
2018-12-31T01:27:58.664Z,102024.53
2018-12-31T01:30:28.491Z,102025.75
2018-12-31T01:32:57.966Z,102027.98
2018-12-31T01:35:27.454Z,102013.93
2018-12-31T01:37:56.983Z,102022.65
2018-12-31T01:40:27.029Z,102037.50
2018-12-31T01:42:56.813Z,102040.13
2018-12-31T01:45:26.595Z,102045.36
2018-12-31T01:47:56.360Z,102053.19
2018-12-31T01:50:26.129Z,102057.66
2018-12-31T01:52:55.732Z,102063.77
2018-12-31T01:55:25.510Z,102069.08
2018-12-31T01:57:55.571Z,102081.83
2018-12-31T02:00:25.060Z,102075.31
2018-12-31T02:02:54.539Z,102070.84
2018-12-31T02:05:24.296Z,102069.94
2018-12-31T02:07:54.387Z,102084.95
2018-12-31T02:10:23.872Z,102065.42
2018-12-31T02:12:53.945Z,102070.17
2018-12-31T02:15:23.702Z,102071.94
2018-12-31T02:17:53.531Z,102072.80
2018-12-31T02:20:23.059Z,102054.81
2018-12-31T02:22:52.925Z,102050.88
2018-12-31T02:25:22.420Z,102036.03
2018-12-31T02:27:51.944Z,102034.83
2018-12-31T02:30:26.337Z,102038.20
2018-12-31T02:32:59.935Z,102040.48
2018-12-31T02:35:29.490Z,102049.61
2018-12-31T02:37:58.969Z,102052.53
2018-12-31T02:40:29.025Z,102048.18
2018-12-31T02:42:58.633Z,102053.84
2018-12-31T02:45:28.562Z,102046.46
2018-12-31T02:47:58.454Z,102053.09
2018-12-31T02:50:27.967Z,102053.03
2018-12-31T02:52:57.748Z,102051.62
2018-12-31T02:55:27.253Z,102050.23
2018-12-31T02:57:57.102Z,102051.55
2018-12-31T03:00:26.684Z,102048.92
2018-12-31T03:02:56.775Z,102048.34
2018-12-31T03:05:26.535Z,102052.27
2018-12-31T03:07:56.052Z,102052.86
2018-12-31T03:10:25.826Z,102046.80
2018-12-31T03:12:55.438Z,102044.14
2018-12-31T03:15:25.022Z,102043.66
2018-12-31T03:17:54.842Z,102036.63
2018-12-31T03:20:24.753Z,102039.77
2018-12-31T03:22:54.773Z,102039.31
2018-12-31T03:25:24.948Z,102037.56
2018-12-31T03:27:55.047Z,102030.13
2018-12-31T03:30:24.891Z,102028.29
2018-12-31T03:32:55.018Z,102029.61
2018-12-31T03:35:24.805Z,102027.89
2018-12-31T03:37:55.138Z,102022.31
2018-12-31T03:40:24.858Z,102024.48
2018-12-31T03:42:55.215Z,102020.92
2018-12-31T03:45:25.182Z,102020.88
2018-12-31T03:47:55.082Z,102030.14
2018-12-31T03:50:24.885Z,102027.91
2018-12-31T03:52:54.869Z,102031.85
2018-12-31T03:55:24.866Z,102036.63
2018-12-31T03:57:55.349Z,102040.59
2018-12-31T04:00:25.296Z,102041.89
2018-12-31T04:02:55.291Z,102039.66
2018-12-31T04:05:25.409Z,102049.38
2018-12-31T04:07:55.687Z,102053.31
2018-12-31T04:10:25.465Z,102057.25
2018-12-31T04:12:56.093Z,102052.45
2018-12-31T04:15:25.602Z,102055.48
2018-12-31T04:17:55.145Z,102057.55
2018-12-31T04:20:25.154Z,102056.81
2018-12-31T04:22:55.468Z,102051.44
2018-12-31T04:25:25.099Z,102046.70
2018-12-31T04:27:55.528Z,102057.55
2018-12-31T04:30:25.765Z,102040.05
2018-12-31T04:32:55.936Z,102041.78
2018-12-31T04:35:25.455Z,102043.14
2018-12-31T04:37:55.027Z,102041.31
2018-12-31T04:40:25.310Z,102040.97
2018-12-31T04:42:55.332Z,102043.66
2018-12-31T04:45:25.384Z,102042.76
2018-12-31T04:47:55.348Z,102046.80
2018-12-31T04:50:25.365Z,102040.30
2018-12-31T04:52:56.598Z,102034.48
2018-12-31T04:55:26.149Z,102038.01
2018-12-31T04:57:55.647Z,102038.75
2018-12-31T05:00:25.537Z,102038.47
2018-12-31T05:02:55.371Z,102045.39
2018-12-31T05:05:25.454Z,102042.48
2018-12-31T05:07:55.352Z,102050.16
2018-12-31T05:10:25.157Z,102053.98
2018-12-31T05:12:55.166Z,102061.21
2018-12-31T05:15:25.432Z,102064.29
2018-12-31T05:17:55.461Z,102059.48
2018-12-31T05:20:25.189Z,102067.17
2018-12-31T05:22:55.325Z,102065.36
2018-12-31T05:25:25.479Z,102068.27
2018-12-31T05:27:55.188Z,102063.59
2018-12-31T05:30:25.449Z,102063.70
2018-12-31T05:32:55.197Z,102064.22
2018-12-31T05:35:25.216Z,102067.53
2018-12-31T05:37:55.508Z,102077.64
2018-12-31T05:40:25.470Z,102065.02
2018-12-31T05:42:55.191Z,102065.88
2018-12-31T05:45:25.544Z,102066.99
2018-12-31T05:47:55.537Z,102071.13
2018-12-31T05:50:25.770Z,102070.27
2018-12-31T05:52:55.433Z,102068.11
2018-12-31T05:55:25.295Z,102068.56
2018-12-31T05:57:55.476Z,102062.00
2018-12-31T06:00:25.543Z,102079.52
2018-12-31T06:02:55.223Z,102080.34
2018-12-31T06:05:25.761Z,102080.83
2018-12-31T06:07:56.230Z,102079.02
2018-12-31T06:10:26.042Z,102087.34
2018-12-31T06:12:55.845Z,102087.81
2018-12-31T06:15:25.611Z,102097.02
2018-12-31T06:17:55.570Z,102096.09
2018-12-31T06:20:25.283Z,102097.29
2018-12-31T06:22:55.545Z,102096.88
2018-12-31T06:25:25.746Z,102093.05
2018-12-31T06:27:55.264Z,102086.48
2018-12-31T06:30:26.030Z,102094.71
2018-12-31T06:32:56.522Z,102104.30
2018-12-31T06:35:26.355Z,102111.67
2018-12-31T06:37:56.218Z,102112.18
2018-12-31T06:40:26.031Z,102119.67
2018-12-31T06:42:55.512Z,102115.67
2018-12-31T06:45:25.488Z,102115.68
2018-12-31T06:47:55.302Z,102102.59
2018-12-31T06:50:25.353Z,102102.19
2018-12-31T06:52:57.569Z,102096.88
2018-12-31T06:55:27.139Z,102106.02
2018-12-31T06:57:57.162Z,102114.31
2018-12-31T07:00:26.978Z,102114.31
2018-12-31T07:02:56.459Z,102116.92
2018-12-31T07:05:26.244Z,102119.96
2018-12-31T07:07:55.773Z,102122.98
2018-12-31T07:10:25.669Z,102098.64
2018-12-31T07:12:55.409Z,102115.16
2018-12-31T07:15:25.699Z,102128.30
2018-12-31T07:17:55.865Z,102129.49
2018-12-31T07:20:25.815Z,102133.55
2018-12-31T07:22:55.479Z,102133.09
2018-12-31T07:25:25.808Z,102131.22
2018-12-31T07:27:55.420Z,102126.06
2018-12-31T07:30:25.708Z,102121.37
2018-12-31T07:32:56.157Z,102120.03
2018-12-31T07:35:25.653Z,102119.58
2018-12-31T07:37:55.615Z,102120.30
2018-12-31T07:40:25.694Z,102122.92
2018-12-31T07:42:55.425Z,102135.16
2018-12-31T07:45:25.712Z,102145.31
2018-12-31T07:47:55.470Z,102143.44
2018-12-31T07:50:25.487Z,102141.26
2018-12-31T07:52:55.753Z,102145.59
2018-12-31T07:55:25.605Z,102147.38
2018-12-31T07:57:55.749Z,102154.12
2018-12-31T08:00:25.476Z,102161.14
2018-12-31T08:02:55.760Z,102161.48
2018-12-31T08:05:25.458Z,102169.02
2018-12-31T08:07:55.463Z,102163.72
2018-12-31T08:10:25.929Z,102165.95
2018-12-31T08:12:55.486Z,102164.11
2018-12-31T08:15:25.466Z,102161.49
2018-12-31T08:17:55.474Z,102162.34
2018-12-31T08:20:25.482Z,102171.55
2018-12-31T08:22:55.491Z,102168.86
2018-12-31T08:25:25.517Z,102171.09
2018-12-31T08:27:55.022Z,102171.94
2018-12-31T08:30:25.796Z,102176.69
2018-12-31T08:32:55.816Z,102164.28
2018-12-31T08:35:25.536Z,102181.30
2018-12-31T08:37:59.272Z,102178.00
2018-12-31T08:40:30.496Z,102171.43
2018-12-31T08:43:00.319Z,102187.67
2018-12-31T08:45:29.803Z,102186.86
2018-12-31T08:48:00.596Z,102186.74
2018-12-31T08:50:30.357Z,102189.42
2018-12-31T08:52:59.874Z,102182.80
2018-12-31T08:55:29.362Z,102178.33
2018-12-31T08:57:59.098Z,102176.95
2018-12-31T09:00:28.601Z,102178.80
2018-12-31T09:02:58.120Z,102181.81
2018-12-31T09:05:27.661Z,102170.27
2018-12-31T09:07:57.452Z,102168.09
2018-12-31T09:10:27.236Z,102168.63
2018-12-31T09:12:56.967Z,102175.67
2018-12-31T09:15:26.590Z,102183.73
2018-12-31T09:17:56.637Z,102178.55
2018-12-31T09:20:26.141Z,102180.72
2018-12-31T09:22:55.664Z,102180.71
2018-12-31T09:25:25.950Z,102177.58
2018-12-31T09:27:55.958Z,102173.30
2018-12-31T09:30:25.635Z,102168.83
2018-12-31T09:32:56.667Z,102170.48
2018-12-31T09:35:26.189Z,102165.59
2018-12-31T09:37:55.795Z,102167.64
2018-12-31T09:40:27.178Z,102164.27
2018-12-31T09:42:56.663Z,102149.04
2018-12-31T09:45:26.560Z,102152.51
2018-12-31T09:47:56.056Z,102152.84
2018-12-31T09:50:26.072Z,102154.76
2018-12-31T09:52:55.770Z,102151.72
2018-12-31T09:55:26.211Z,102145.16
2018-12-31T09:57:56.025Z,102148.77
2018-12-31T10:00:26.021Z,102140.94
2018-12-31T10:02:55.835Z,102138.71
2018-12-31T10:05:25.793Z,102125.34
2018-12-31T10:07:55.766Z,102128.37
2018-12-31T10:10:26.079Z,102140.89
2018-12-31T10:12:56.026Z,102149.13
2018-12-31T10:15:25.834Z,102149.25
2018-12-31T10:17:56.192Z,102149.33
2018-12-31T10:20:26.187Z,102155.70
2018-12-31T10:22:56.172Z,102147.88
2018-12-31T10:25:25.913Z,102147.73
2018-12-31T10:27:56.932Z,102148.52
2018-12-31T10:30:26.714Z,102146.09
2018-12-31T10:32:56.191Z,102141.15
2018-12-31T10:35:25.918Z,102141.52
2018-12-31T10:37:56.162Z,102141.60
2018-12-31T10:40:25.921Z,102136.11
2018-12-31T10:42:56.172Z,102132.14
2018-12-31T10:45:26.289Z,102125.25
2018-12-31T10:47:56.190Z,102118.61
2018-12-31T10:50:25.951Z,102110.89
2018-12-31T10:52:56.174Z,102113.02
2018-12-31T10:55:25.985Z,102110.42
2018-12-31T10:57:56.259Z,102115.12
2018-12-31T11:00:26.029Z,102100.57
2018-12-31T11:02:56.165Z,102076.10
2018-12-31T11:05:25.948Z,102092.77
2018-12-31T11:07:56.013Z,102100.25
2018-12-31T11:10:26.005Z,102088.72
2018-12-31T11:12:56.559Z,102091.37
2018-12-31T11:15:26.295Z,102089.36
2018-12-31T11:17:56.708Z,102095.53
2018-12-31T11:20:27.475Z,102090.34
2018-12-31T11:22:57.273Z,102088.04
2018-12-31T11:25:26.786Z,102087.56
2018-12-31T11:27:56.613Z,102087.53
2018-12-31T11:30:26.187Z,102080.97
2018-12-31T11:32:56.237Z,102076.89
2018-12-31T11:35:26.169Z,102079.99
2018-12-31T11:37:56.130Z,102082.15
2018-12-31T11:40:26.130Z,102070.70
2018-12-31T11:42:56.722Z,102067.59
2018-12-31T11:45:26.275Z,102048.06
2018-12-31T11:47:56.153Z,102066.33
2018-12-31T11:50:26.152Z,102073.25
2018-12-31T11:52:56.478Z,102058.05
2018-12-31T11:55:26.424Z,102071.13
2018-12-31T11:57:56.271Z,102066.11
2018-12-31T12:00:26.173Z,102061.73
2018-12-31T12:02:56.502Z,102063.53
2018-12-31T12:05:26.186Z,102065.23
2018-12-31T12:07:56.221Z,102073.92
2018-12-31T12:10:26.744Z,102064.70
2018-12-31T12:12:56.269Z,102074.47
2018-12-31T12:15:27.006Z,102070.04
2018-12-31T12:17:56.509Z,102067.33
2018-12-31T12:20:26.261Z,102068.45
2018-12-31T12:22:56.355Z,102064.14
2018-12-31T12:25:26.967Z,102060.65
2018-12-31T12:27:58.405Z,102059.72
2018-12-31T12:30:28.742Z,102058.28
2018-12-31T12:32:58.524Z,102062.99
2018-12-31T12:35:28.333Z,102067.83
2018-12-31T12:37:57.809Z,102063.87
2018-12-31T12:40:27.884Z,102069.30
2018-12-31T12:42:57.618Z,102074.09
2018-12-31T12:45:27.211Z,102076.28
2018-12-31T12:47:56.783Z,102068.74
2018-12-31T12:50:26.689Z,102071.86
2018-12-31T12:52:56.608Z,102081.36
2018-12-31T12:55:26.950Z,102074.02
2018-12-31T12:57:56.730Z,102069.95
2018-12-31T13:00:27.084Z,102065.65
2018-12-31T13:02:57.373Z,102076.67
2018-12-31T13:05:26.873Z,102058.45
2018-12-31T13:07:57.184Z,102071.28
2018-12-31T13:10:27.475Z,102068.09
2018-12-31T13:12:57.279Z,102078.32
2018-12-31T13:15:27.034Z,102074.84
2018-12-31T13:17:57.433Z,102075.81
2018-12-31T13:20:27.689Z,102080.98
2018-12-31T13:22:57.273Z,102076.53
2018-12-31T13:25:27.173Z,102069.38
2018-12-31T13:27:57.588Z,102063.22
2018-12-31T13:30:27.480Z,102060.53
2018-12-31T13:32:57.916Z,102063.87
2018-12-31T13:35:27.427Z,102067.55
2018-12-31T13:37:58.032Z,102072.88
2018-12-31T13:40:27.813Z,102075.53
2018-12-31T13:42:58.869Z,102075.20
2018-12-31T13:45:28.353Z,102091.91
2018-12-31T13:47:57.925Z,102097.09
2018-12-31T13:50:27.619Z,102098.11
2018-12-31T13:52:57.872Z,102090.41
2018-12-31T13:55:27.732Z,102094.27
2018-12-31T13:57:57.483Z,102097.44
2018-12-31T14:00:28.018Z,102096.21
2018-12-31T14:02:58.175Z,102091.52
2018-12-31T14:05:28.437Z,102093.30
2018-12-31T14:07:58.468Z,102083.25
2018-12-31T14:10:28.063Z,102083.31
2018-12-31T14:12:58.388Z,102082.85
2018-12-31T14:15:27.974Z,102068.28
2018-12-31T14:17:58.582Z,102069.10
2018-12-31T14:20:28.229Z,102074.59
2018-12-31T14:22:58.096Z,102079.53
2018-12-31T14:25:28.154Z,102081.80
2018-12-31T14:27:58.216Z,102077.83
2018-12-31T14:30:28.697Z,102082.55
2018-12-31T14:32:58.318Z,102085.22
2018-12-31T14:35:28.892Z,102082.56
2018-12-31T14:37:58.436Z,102087.73
2018-12-31T14:40:28.898Z,102083.33
2018-12-31T14:42:58.946Z,102083.86
2018-12-31T14:45:28.860Z,102087.72
2018-12-31T14:47:58.559Z,102088.14
2018-12-31T14:50:28.611Z,102085.39
2018-12-31T14:52:58.639Z,102086.27
2018-12-31T14:55:28.727Z,102089.82
2018-12-31T14:57:58.680Z,102087.16
2018-12-31T15:00:28.772Z,102083.97
2018-12-31T15:02:58.783Z,102081.84
2018-12-31T15:05:28.841Z,102071.68
2018-12-31T15:07:58.929Z,102087.06
2018-12-31T15:10:28.846Z,102083.52
2018-12-31T15:12:58.945Z,102073.89
2018-12-31T15:15:29.691Z,102075.73
2018-12-31T15:17:59.281Z,102076.95
2018-12-31T15:20:29.602Z,102075.63
2018-12-31T15:22:59.453Z,102076.17
2018-12-31T15:25:29.892Z,102064.77
2018-12-31T15:27:59.462Z,102064.21
2018-12-31T15:30:29.508Z,102062.53
2018-12-31T15:32:59.416Z,102058.10
2018-12-31T15:35:29.405Z,102062.91
2018-12-31T15:37:59.450Z,102060.30
2018-12-31T15:40:29.470Z,102057.64
2018-12-31T15:42:59.773Z,102048.80
2018-12-31T15:45:29.914Z,102053.33
2018-12-31T15:47:59.690Z,102051.31
2018-12-31T15:50:29.659Z,102054.34
2018-12-31T15:53:00.167Z,102065.75
2018-12-31T15:55:30.010Z,102066.48
2018-12-31T15:57:59.750Z,102067.95
2018-12-31T16:00:30.104Z,102064.77
2018-12-31T16:03:00.075Z,102070.20
2018-12-31T16:05:30.235Z,102082.06
2018-12-31T16:08:00.070Z,102075.34
2018-12-31T16:10:30.290Z,102078.80
2018-12-31T16:12:59.963Z,102075.48
2018-12-31T16:15:30.202Z,102078.34
2018-12-31T16:18:00.091Z,102074.88
2018-12-31T16:20:30.151Z,102083.71
2018-12-31T16:23:00.244Z,102081.16
2018-12-31T16:25:30.249Z,102071.27
2018-12-31T16:28:00.261Z,102080.23
2018-12-31T16:30:30.732Z,102075.42
2018-12-31T16:33:00.312Z,102074.92
2018-12-31T16:35:30.384Z,102077.56
2018-12-31T16:38:00.415Z,102072.16
2018-12-31T16:40:30.745Z,102061.14
2018-12-31T16:43:00.888Z,102058.56
2018-12-31T16:45:31.051Z,102057.72
2018-12-31T16:48:01.010Z,102056.41
2018-12-31T16:50:30.635Z,102059.88
2018-12-31T16:53:00.835Z,102056.48
2018-12-31T16:55:30.997Z,102070.36
2018-12-31T16:58:01.044Z,102058.20
2018-12-31T17:00:31.846Z,102056.77
2018-12-31T17:03:01.386Z,102061.04
2018-12-31T17:05:31.202Z,102060.25
2018-12-31T17:08:00.862Z,102060.72
2018-12-31T17:10:30.996Z,102054.05
2018-12-31T17:13:01.098Z,102060.16
2018-12-31T17:15:31.019Z,102049.56
2018-12-31T17:18:01.021Z,102056.05
2018-12-31T17:20:31.123Z,102059.11
2018-12-31T17:23:01.072Z,102056.96
2018-12-31T17:25:31.780Z,102052.15
2018-12-31T17:28:01.562Z,102053.05
2018-12-31T17:30:31.381Z,102055.67
2018-12-31T17:33:01.501Z,102052.92
2018-12-31T17:35:31.704Z,102037.70
2018-12-31T17:38:01.601Z,102032.48
2018-12-31T17:40:31.505Z,102044.53
2018-12-31T17:43:01.949Z,102035.20
2018-12-31T17:45:31.713Z,102042.22
2018-12-31T17:48:01.600Z,102034.85
2018-12-31T17:50:31.731Z,102027.78
2018-12-31T17:53:01.788Z,102019.50
2018-12-31T17:55:31.678Z,102023.48
2018-12-31T17:58:02.016Z,102039.85
2018-12-31T18:00:32.060Z,102045.38
2018-12-31T18:03:01.972Z,102049.35
2018-12-31T18:05:32.030Z,102038.97
2018-12-31T18:08:02.050Z,102035.42
2018-12-31T18:10:32.214Z,102032.76
2018-12-31T18:13:02.244Z,102040.61
2018-12-31T18:15:32.039Z,102045.38
2018-12-31T18:18:02.370Z,102044.19
2018-12-31T18:20:32.231Z,102041.98
2018-12-31T18:23:02.666Z,102040.59
2018-12-31T18:25:32.207Z,102047.28
2018-12-31T18:28:02.503Z,102040.50
2018-12-31T18:30:32.749Z,102040.98
2018-12-31T18:33:02.379Z,102041.45
2018-12-31T18:35:32.365Z,102037.30
2018-12-31T18:38:02.638Z,102030.31
2018-12-31T18:40:32.413Z,102029.56
2018-12-31T18:43:03.003Z,102033.99
2018-12-31T18:45:32.798Z,102028.09
2018-12-31T18:48:02.557Z,102030.36
2018-12-31T18:50:32.584Z,102033.06
2018-12-31T18:53:02.948Z,102034.36
2018-12-31T18:55:32.719Z,102038.13
2018-12-31T18:58:03.250Z,102044.75
2018-12-31T19:00:33.088Z,102049.77
2018-12-31T19:03:03.057Z,102038.84
2018-12-31T19:05:33.280Z,102045.70
2018-12-31T19:08:03.162Z,102048.40
2018-12-31T19:10:32.907Z,102046.24
2018-12-31T19:13:02.941Z,102050.55
2018-12-31T19:15:33.361Z,102052.02
2018-12-31T19:18:03.382Z,102053.31
2018-12-31T19:20:33.280Z,102043.98
2018-12-31T19:23:03.121Z,102049.36
2018-12-31T19:25:34.086Z,102048.02
2018-12-31T19:28:03.597Z,102040.81
2018-12-31T19:30:33.321Z,102052.09
2018-12-31T19:33:03.265Z,102056.02
2018-12-31T19:35:33.411Z,102046.52
2018-12-31T19:38:03.622Z,102044.67
2018-12-31T19:40:34.172Z,102046.04
2018-12-31T19:43:03.715Z,102038.08
2018-12-31T19:45:33.803Z,102034.47
2018-12-31T19:48:03.844Z,102037.14
2018-12-31T19:50:33.856Z,102030.73
2018-12-31T19:53:03.906Z,102031.73
2018-12-31T19:55:33.855Z,102028.84
2018-12-31T19:58:03.966Z,102038.54
2018-12-31T20:00:33.930Z,102029.86
2018-12-31T20:03:03.789Z,102031.17
2018-12-31T20:05:33.784Z,102021.89
2018-12-31T20:08:04.268Z,102026.66
2018-12-31T20:10:34.665Z,102024.15
2018-12-31T20:13:04.348Z,102029.02
2018-12-31T20:15:34.104Z,101995.64
2018-12-31T20:18:04.272Z,102025.55
2018-12-31T20:20:34.760Z,102023.27
2018-12-31T20:23:04.333Z,102010.22
2018-12-31T20:25:34.478Z,102010.22
2018-12-31T20:28:06.056Z,102018.88
2018-12-31T20:30:35.513Z,102020.20
2018-12-31T20:33:05.223Z,102017.16
2018-12-31T20:35:34.743Z,102015.16
2018-12-31T20:38:04.521Z,102012.09
2018-12-31T20:40:34.739Z,102007.36
2018-12-31T20:43:04.437Z,102000.11
2018-12-31T20:45:34.768Z,102002.39
2018-12-31T20:48:04.805Z,102002.57
2018-12-31T20:50:34.625Z,102002.11
2018-12-31T20:53:04.735Z,101997.76
2018-12-31T20:55:34.838Z,101998.06
2018-12-31T20:58:05.132Z,102000.16
2018-12-31T21:00:34.819Z,101994.12
2018-12-31T21:03:04.838Z,102002.03
2018-12-31T21:05:35.372Z,101993.66
2018-12-31T21:08:04.991Z,101991.50
2018-12-31T21:10:34.948Z,101995.66
2018-12-31T21:13:05.228Z,101993.47
2018-12-31T21:15:35.003Z,101986.05
2018-12-31T21:18:05.003Z,101982.05
2018-12-31T21:20:35.063Z,101985.55
2018-12-31T21:23:05.119Z,101981.88
2018-12-31T21:25:35.465Z,101982.09
2018-12-31T21:28:05.195Z,101975.84
2018-12-31T21:30:35.372Z,101978.86
2018-12-31T21:33:05.557Z,101978.86
2018-12-31T21:35:35.511Z,101970.98
2018-12-31T21:38:05.561Z,101970.02
2018-12-31T21:40:35.680Z,101938.42
2018-12-31T21:43:05.495Z,101962.11
2018-12-31T21:45:35.461Z,101962.97
2018-12-31T21:48:05.571Z,101952.32
2018-12-31T21:50:35.924Z,101963.98
2018-12-31T21:53:06.431Z,101957.78
2018-12-31T21:55:36.510Z,101942.00
2018-12-31T21:58:06.383Z,101948.87
2018-12-31T22:00:36.085Z,101944.06
2018-12-31T22:03:06.242Z,101943.31
2018-12-31T22:05:35.784Z,101941.05
2018-12-31T22:08:06.142Z,101946.22
2018-12-31T22:10:36.076Z,101947.08
2018-12-31T22:13:05.816Z,101938.50
2018-12-31T22:15:36.119Z,101934.20
2018-12-31T22:18:05.913Z,101930.79
2018-12-31T22:20:36.008Z,101924.69
2018-12-31T22:23:06.292Z,101912.94
2018-12-31T22:25:36.926Z,101915.44
2018-12-31T22:28:06.756Z,101910.22
2018-12-31T22:30:36.281Z,101905.20
2018-12-31T22:33:06.198Z,101895.92
2018-12-31T22:35:36.321Z,101895.04
2018-12-31T22:38:06.996Z,101889.05
2018-12-31T22:40:37.435Z,101881.88
2018-12-31T22:43:07.388Z,101885.04
2018-12-31T22:45:37.342Z,101881.41
2018-12-31T22:48:07.255Z,101860.91
2018-12-31T22:50:37.476Z,101873.05
2018-12-31T22:53:07.481Z,101878.78
2018-12-31T22:55:37.506Z,101861.28
2018-12-31T22:58:07.684Z,101874.86
2018-12-31T23:00:38.072Z,101877.48
2018-12-31T23:03:07.969Z,101859.91
2018-12-31T23:05:39.863Z,101860.28
2018-12-31T23:08:09.450Z,101858.66
2018-12-31T23:10:39.029Z,101858.77
2018-12-31T23:13:09.258Z,101860.91
2018-12-31T23:15:38.817Z,101856.59
2018-12-31T23:18:08.355Z,101864.89
2018-12-31T23:20:38.934Z,101827.31
2018-12-31T23:23:08.506Z,101853.02
2018-12-31T23:25:38.004Z,101847.16
2018-12-31T23:28:08.027Z,101831.00
2018-12-31T23:30:38.222Z,101835.59
2018-12-31T23:33:15.688Z,101827.25
2018-12-31T23:35:51.772Z,101818.06
2018-12-31T23:38:21.326Z,101820.72
2018-12-31T23:40:51.542Z,101814.48
2018-12-31T23:43:21.420Z,101803.11
2018-12-31T23:45:51.343Z,101803.20
2018-12-31T23:48:22.215Z,101810.61
2018-12-31T23:50:52.273Z,101793.23
2018-12-31T23:53:21.776Z,101800.94
2018-12-31T23:55:51.686Z,101792.80
2018-12-31T23:58:26.573Z,101800.70
